Time;durP1;ratioP1;P1;durP2;ratioP2;P2;SDS_P1;SDS_P2;PMS_P1;PMS_P2;Temp;Humidity;BMP_temperature;BMP_pressure;BME280_temperature;BME280_humidity;BME280_pressure;Samples;Min_cycle;Max_cycle;Signal;HPM_P1;HPM_P2
2022/10/31 06:18:53;;;;;;;21.83;15.60;;;13.20;99.90;;;;;;5113917;28;20496;-68
2022/10/31 06:21:20;;;;;;;20.10;14.07;;;13.30;99.90;;;;;;5115454;28;20453;-68
2022/10/31 06:23:47;;;;;;;19.30;14.23;;;13.30;99.90;;;;;;5115595;28;20449;-68
2022/10/31 06:26:14;;;;;;;17.27;14.50;;;13.30;99.90;;;;;;5114607;28;20476;-68
2022/10/31 06:28:41;;;;;;;24.00;16.90;;;13.40;99.90;;;;;;5116971;28;20491;-68
2022/10/31 06:31:08;;;;;;;26.03;14.73;;;13.40;99.90;;;;;;5117311;28;20458;-68
2022/10/31 06:33:35;;;;;;;21.50;13.23;;;13.40;99.90;;;;;;5118015;28;20459;-67
2022/10/31 06:36:04;;;;;;;17.20;14.73;;;13.40;99.90;;;;;;5117734;28;20453;-68
2022/10/31 06:38:31;;;;;;;18.93;14.37;;;13.40;99.90;;;;;;5118254;28;20471;-69
2022/10/31 06:40:58;;;;;;;20.20;14.30;;;13.50;99.90;;;;;;5118077;28;20448;-69
2022/10/31 06:43:25;;;;;;;19.97;13.63;;;13.50;99.90;;;;;;5118952;28;20441;-69
2022/10/31 06:45:52;;;;;;;20.00;14.30;;;13.50;99.90;;;;;;5116931;28;20449;-68
2022/10/31 06:48:19;;;;;;;24.00;13.43;;;13.50;99.90;;;;;;5118114;28;20429;-68
2022/10/31 06:50:46;;;;;;;21.33;13.70;;;13.50;99.90;;;;;;5117548;28;20475;-68
2022/10/31 06:53:15;;;;;;;29.47;15.50;;;13.50;99.90;;;;;;5118077;28;20454;-68
2022/10/31 06:55:42;;;;;;;24.30;15.37;;;13.50;99.90;;;;;;5117429;28;20502;-68
2022/10/31 06:58:10;;;;;;;22.17;15.20;;;13.50;99.90;;;;;;5118553;28;20454;-69
2022/10/31 07:00:38;;;;;;;20.70;14.93;;;13.50;99.90;;;;;;5117500;28;20494;-69
2022/10/31 07:03:06;;;;;;;17.23;14.60;;;13.50;99.90;;;;;;5117423;28;20437;-69
2022/10/31 07:05:34;;;;;;;21.87;14.57;;;13.60;99.90;;;;;;5112314;28;20445;-69
2022/10/31 07:08:02;;;;;;;20.33;14.50;;;13.60;99.90;;;;;;5108549;28;20477;-70
2022/10/31 07:10:32;;;;;;;19.83;14.83;;;13.70;99.90;;;;;;5115678;28;20484;-69
2022/10/31 07:13:00;;;;;;;23.27;15.07;;;13.70;99.90;;;;;;5115931;28;20467;-69
2022/10/31 07:15:29;;;;;;;21.10;14.53;;;13.80;99.90;;;;;;5114530;28;20450;-69
2022/10/31 07:18:01;;;;;;;22.40;14.87;;;13.90;99.90;;;;;;5114747;28;20461;-70
2022/10/31 07:20:28;;;;;;;20.23;14.00;;;14.00;99.90;;;;;;5113611;28;20497;-68
2022/10/31 07:22:55;;;;;;;19.40;14.50;;;14.10;99.90;;;;;;5112916;28;20449;-70
2022/10/31 07:25:22;;;;;;;30.50;13.70;;;14.20;99.90;;;;;;5113854;28;20474;-68
2022/10/31 07:27:51;;;;;;;23.03;14.83;;;14.20;99.90;;;;;;5114384;28;20475;-69
2022/10/31 07:30:18;;;;;;;20.10;14.10;;;14.30;99.90;;;;;;5113818;28;20496;-69
2022/10/31 07:32:47;;;;;;;19.93;14.00;;;14.40;99.90;;;;;;5113372;28;20449;-69
2022/10/31 07:35:16;;;;;;;23.30;14.10;;;14.40;99.90;;;;;;5114000;28;20831;-69
2022/10/31 07:37:43;;;;;;;22.90;14.50;;;14.40;99.90;;;;;;5114616;28;20510;-69
2022/10/31 07:40:12;;;;;;;19.33;14.00;;;14.40;99.90;;;;;;5115841;28;20475;-69
2022/10/31 07:42:40;;;;;;;18.30;14.50;;;14.50;99.90;;;;;;5116349;28;20468;-69
2022/10/31 07:45:10;;;;;;;22.10;14.47;;;14.50;99.90;;;;;;5115682;28;20449;-68
2022/10/31 07:47:40;;;;;;;24.00;14.47;;;14.40;99.90;;;;;;5116226;28;20449;-68
2022/10/31 07:50:08;;;;;;;24.03;15.30;;;14.40;99.90;;;;;;5116306;28;20469;-68
2022/10/31 07:52:35;;;;;;;26.77;16.20;;;14.40;99.90;;;;;;5116563;28;20487;-68
2022/10/31 07:55:02;;;;;;;25.63;16.30;;;14.40;99.90;;;;;;5117550;28;20453;-69
2022/10/31 07:57:29;;;;;;;20.23;15.50;;;14.40;99.90;;;;;;5116550;28;20445;-68
2022/10/31 07:59:56;;;;;;;23.07;14.93;;;14.40;99.90;;;;;;5116851;28;20445;-70
2022/10/31 08:02:24;;;;;;;21.60;14.37;;;14.40;99.90;;;;;;5116502;28;20471;-69
2022/10/31 08:04:51;;;;;;;23.77;15.40;;;14.40;99.90;;;;;;5116921;28;20453;-68
2022/10/31 08:07:19;;;;;;;23.33;15.50;;;14.40;99.90;;;;;;5115885;28;20522;-69
2022/10/31 08:09:46;;;;;;;26.00;16.57;;;14.40;99.90;;;;;;5115701;28;20465;-69
2022/10/31 08:12:13;;;;;;;23.80;16.40;;;14.50;99.90;;;;;;5116834;28;20462;-68
2022/10/31 08:14:39;;;;;;;20.90;15.97;;;14.50;99.90;;;;;;5117320;28;20483;-69
2022/10/31 08:17:06;;;;;;;25.40;16.70;;;14.50;99.90;;;;;;5116685;28;20456;-68
2022/10/31 08:19:35;;;;;;;23.30;15.93;;;14.50;99.90;;;;;;5116451;28;20475;-69
2022/10/31 08:22:01;;;;;;;19.57;15.87;;;14.50;99.90;;;;;;5112114;28;20438;-69
2022/10/31 08:24:28;;;;;;;22.30;16.00;;;14.60;99.90;;;;;;5111538;28;20574;-68
2022/10/31 08:26:55;;;;;;;23.27;15.90;;;14.60;99.90;;;;;;5117344;28;20453;-70
2022/10/31 08:29:22;;;;;;;24.10;16.70;;;14.70;99.90;;;;;;5119850;28;20456;-70
2022/10/31 08:31:49;;;;;;;28.03;16.37;;;14.80;99.90;;;;;;5120722;28;20453;-69
2022/10/31 08:34:16;;;;;;;26.63;16.70;;;14.80;99.90;;;;;;5120028;28;20465;-69
2022/10/31 08:36:46;;;;;;;26.10;16.93;;;14.80;99.90;;;;;;5119359;28;20450;-68
2022/10/31 08:39:14;;;;;;;23.07;16.53;;;14.80;99.90;;;;;;5120812;28;20414;-68
2022/10/31 08:41:41;;;;;;;25.20;16.53;;;14.70;99.90;;;;;;5120290;28;20479;-69
2022/10/31 08:44:08;;;;;;;22.70;17.47;;;14.70;99.90;;;;;;5120843;28;20445;-68
2022/10/31 08:46:35;;;;;;;28.93;16.80;;;14.60;99.90;;;;;;5120186;28;20449;-69
2022/10/31 08:49:02;;;;;;;30.93;17.30;;;14.60;99.90;;;;;;5120892;28;20477;-68
2022/10/31 08:51:29;;;;;;;23.33;16.00;;;14.60;99.90;;;;;;5119410;28;20449;-69
2022/10/31 08:53:57;;;;;;;26.20;17.17;;;14.60;99.90;;;;;;5117041;28;20453;-69
2022/10/31 08:56:25;;;;;;;29.30;19.10;;;14.70;99.90;;;;;;5117592;28;20433;-69
2022/10/31 08:58:53;;;;;;;26.33;19.27;;;14.80;99.90;;;;;;5117379;28;20452;-69
2022/10/31 09:01:20;;;;;;;22.30;17.23;;;14.90;99.90;;;;;;5117446;28;20450;-69
2022/10/31 09:03:47;;;;;;;27.40;17.00;;;15.00;99.90;;;;;;5118780;28;20445;-68
2022/10/31 09:06:14;;;;;;;25.37;16.97;;;15.00;99.90;;;;;;5119542;28;20446;-69
2022/10/31 09:08:41;;;;;;;20.90;16.03;;;15.00;99.90;;;;;;5119912;28;20453;-69
2022/10/31 09:11:10;;;;;;;23.57;18.30;;;15.00;99.90;;;;;;5119462;28;20637;-68
2022/10/31 09:13:37;;;;;;;24.57;17.60;;;15.10;99.90;;;;;;5119066;28;20823;-69
2022/10/31 09:16:04;;;;;;;22.17;18.83;;;15.10;99.90;;;;;;5118238;28;20483;-69
2022/10/31 09:18:31;;;;;;;30.87;18.00;;;15.20;99.90;;;;;;5115151;28;20472;-69
2022/10/31 09:20:59;;;;;;;31.80;20.27;;;15.20;99.90;;;;;;5116851;28;20472;-69
2022/10/31 09:23:26;;;;;;;26.53;18.13;;;15.20;99.90;;;;;;5118180;28;20453;-69
2022/10/31 09:25:54;;;;;;;26.17;19.13;;;15.20;99.90;;;;;;5118035;28;20460;-68
2022/10/31 09:28:24;;;;;;;25.37;18.67;;;15.20;99.90;;;;;;5116770;28;20479;-69
2022/10/31 09:30:54;;;;;;;26.50;18.73;;;15.20;99.90;;;;;;5116640;28;20460;-69
2022/10/31 09:33:21;;;;;;;27.80;18.83;;;15.20;99.90;;;;;;5117736;28;20438;-69
2022/10/31 09:35:48;;;;;;;24.53;17.70;;;15.20;99.90;;;;;;5118585;28;20449;-68
2022/10/31 09:38:18;;;;;;;24.20;18.10;;;15.20;99.90;;;;;;5118229;28;20449;-69
2022/10/31 09:40:48;;;;;;;24.23;18.30;;;15.20;99.90;;;;;;5117367;28;20460;-68
2022/10/31 09:43:19;;;;;;;32.00;19.23;;;15.30;99.90;;;;;;5118338;28;20453;-68
2022/10/31 09:45:59;;;;;;;27.80;20.07;;;15.30;99.90;;;;;;5118709;28;20460;-67
2022/10/31 09:48:41;;;;;;;30.30;19.30;;;15.30;99.90;;;;;;5118461;28;20449;-69
2022/10/31 09:51:12;;;;;;;30.97;22.07;;;15.30;99.90;;;;;;5118605;28;20488;-70
2022/10/31 09:53:43;;;;;;;30.30;20.20;;;15.30;99.90;;;;;;5118738;28;20455;-69
2022/10/31 09:56:12;;;;;;;30.97;20.50;;;15.30;99.90;;;;;;5118845;28;20422;-69
2022/10/31 09:58:44;;;;;;;31.90;19.90;;;15.30;99.90;;;;;;5118064;28;20453;-70
2022/10/31 10:01:30;;;;;;;30.30;20.47;;;15.30;99.90;;;;;;5118197;28;20440;-69
2022/10/31 10:04:03;;;;;;;30.33;19.70;;;15.40;99.90;;;;;;5119110;28;20421;-69
2022/10/31 10:06:34;;;;;;;31.50;22.33;;;15.50;99.90;;;;;;5117973;28;20421;-67
2022/10/31 10:09:02;;;;;;;31.43;20.70;;;15.50;99.90;;;;;;5118511;28;20418;-69
2022/10/31 10:11:39;;;;;;;32.53;21.17;;;15.60;99.90;;;;;;5117311;28;20514;-69
2022/10/31 10:14:17;;;;;;;34.17;20.60;;;15.70;99.90;;;;;;5116585;28;20453;-68
2022/10/31 10:16:59;;;;;;;21.60;18.23;;;15.90;99.90;;;;;;5114496;28;20473;-69
2022/10/31 10:19:49;;;;;;;32.90;20.00;;;16.10;99.90;;;;;;5115963;28;20479;-69
2022/10/31 10:22:25;;;;;;;28.83;21.80;;;16.20;99.90;;;;;;5114663;28;20514;-69
2022/10/31 10:25:04;;;;;;;25.20;19.70;;;16.30;99.90;;;;;;5116263;28;20433;-69
2022/10/31 10:27:44;;;;;;;30.70;19.67;;;16.40;99.90;;;;;;5113246;28;20482;-70
2022/10/31 10:30:16;;;;;;;26.40;20.07;;;16.50;99.90;;;;;;5114285;28;20476;-69
2022/10/31 10:32:48;;;;;;;25.37;20.20;;;16.60;99.90;;;;;;5113080;28;20434;-69
2022/10/31 10:35:26;;;;;;;28.90;20.37;;;16.70;99.90;;;;;;5111943;28;20445;-69
2022/10/31 10:37:59;;;;;;;25.23;18.60;;;16.90;99.90;;;;;;5113124;28;20446;-69
2022/10/31 10:40:28;;;;;;;31.37;19.83;;;16.90;99.90;;;;;;5111538;28;20449;-69
2022/10/31 10:43:21;;;;;;;28.00;21.10;;;17.00;99.90;;;;;;5108621;28;20987;-69
2022/10/31 10:48:52;;;;;;;27.57;19.00;;;17.30;99.90;;;;;;5106575;28;20491;-69
2022/10/31 10:51:23;;;;;;;37.13;19.73;;;17.50;99.90;;;;;;5107791;28;20465;-69
2022/10/31 10:54:13;;;;;;;24.13;18.77;;;17.70;99.90;;;;;;5110452;28;20540;-69
2022/10/31 10:56:56;;;;;;;30.70;19.43;;;17.80;99.90;;;;;;5110572;28;20731;-68
2022/10/31 10:59:24;;;;;;;25.97;19.50;;;17.90;99.90;;;;;;5111225;28;20437;-69
2022/10/31 11:01:52;;;;;;;31.87;20.23;;;18.00;99.90;;;;;;5106267;28;20458;-69
2022/10/31 11:04:34;;;;;;;31.47;20.50;;;18.10;99.90;;;;;;5106714;28;20526;-70
2022/10/31 11:07:02;;;;;;;30.40;20.57;;;18.30;99.90;;;;;;5107260;28;20750;-69
2022/10/31 11:09:30;;;;;;;29.10;18.70;;;18.40;99.90;;;;;;5109093;28;20460;-69
2022/10/31 11:11:57;;;;;;;26.00;19.60;;;18.50;99.90;;;;;;5109328;28;20512;-69
2022/10/31 11:14:24;;;;;;;27.53;19.87;;;18.60;99.90;;;;;;5110134;28;20522;-69
2022/10/31 11:16:55;;;;;;;27.00;18.10;;;18.70;99.90;;;;;;5109563;28;20445;-68
2022/10/31 11:19:25;;;;;;;25.37;19.17;;;18.80;99.90;;;;;;5108675;28;20454;-68
2022/10/31 11:21:53;;;;;;;31.30;21.20;;;18.90;99.90;;;;;;5107547;28;20449;-69
2022/10/31 11:24:22;;;;;;;33.97;19.90;;;18.90;99.90;;;;;;5108938;28;20464;-69
2022/10/31 11:26:51;;;;;;;27.43;20.97;;;19.00;99.90;;;;;;5108860;28;20529;-70
2022/10/31 11:29:22;;;;;;;30.73;20.20;;;19.20;99.90;;;;;;5110018;28;20459;-70
2022/10/31 11:31:53;;;;;;;30.13;21.97;;;19.30;99.90;;;;;;5107490;28;20473;-69
2022/10/31 11:34:28;;;;;;;23.47;19.07;;;19.40;99.90;;;;;;5107074;28;20522;-70
2022/10/31 11:37:02;;;;;;;30.30;20.73;;;19.60;99.90;;;;;;5107238;28;20455;-68
2022/10/31 11:39:29;;;;;;;29.03;20.00;;;19.80;99.90;;;;;;5110727;28;20448;-69
2022/10/31 11:42:02;;;;;;;30.73;18.70;;;19.80;99.90;;;;;;5107249;28;20449;-70
2022/10/31 11:44:37;;;;;;;26.30;18.80;;;20.00;99.90;;;;;;5109984;28;20451;-69
2022/10/31 11:47:07;;;;;;;30.10;18.63;;;20.20;99.90;;;;;;5107227;28;20441;-69
2022/10/31 11:49:39;;;;;;;28.43;19.47;;;20.60;99.90;;;;;;5104922;28;20464;-70
2022/10/31 11:52:15;;;;;;;33.60;19.67;;;21.40;99.90;;;;;;5104797;28;20438;-69
2022/10/31 11:54:47;;;;;;;28.83;18.23;;;22.30;99.90;;;;;;5104964;28;20438;-68
2022/10/31 12:00:49;;;;;;;25.40;17.57;;;23.90;99.90;;;;;;5107411;28;20405;-71
2022/10/31 12:03:34;;;;;;;27.70;17.30;;;24.70;99.90;;;;;;5111130;28;20491;-69
2022/10/31 12:06:06;;;;;;;23.73;17.30;;;25.30;99.90;;;;;;5105974;28;20453;-69
2022/10/31 12:08:36;;;;;;;23.03;16.50;;;25.60;99.90;;;;;;5106393;28;20487;-69
2022/10/31 12:11:12;;;;;;;23.53;18.47;;;25.80;99.90;;;;;;5106045;28;20493;-69
2022/10/31 12:13:49;;;;;;;24.03;17.17;;;26.20;99.90;;;;;;5109274;28;20517;-69
2022/10/31 12:16:21;;;;;;;23.50;18.00;;;26.50;99.90;;;;;;5111673;28;20448;-67
2022/10/31 12:18:58;;;;;;;23.60;18.50;;;26.80;99.90;;;;;;5108796;28;20477;-70
2022/10/31 12:21:39;;;;;;;25.63;17.70;;;26.80;99.90;;;;;;5107281;28;20433;-69
2022/10/31 12:24:19;;;;;;;26.07;18.80;;;27.00;99.90;;;;;;5103905;28;20522;-69
2022/10/31 12:26:56;;;;;;;23.60;18.30;;;27.00;99.90;;;;;;5106734;28;20890;-70
2022/10/31 12:29:43;;;;;;;19.73;15.80;;;27.40;99.90;;;;;;5113168;28;20837;-69
2022/10/31 12:32:22;;;;;;;27.23;17.10;;;27.70;99.90;;;;;;5111062;28;20426;-70
2022/10/31 12:35:06;;;;;;;30.53;16.93;;;27.80;99.90;;;;;;5109971;28;20453;-69
2022/10/31 12:37:48;;;;;;;19.37;16.30;;;28.10;99.90;;;;;;5115856;28;20417;-70
2022/10/31 12:40:41;;;;;;;22.00;16.87;;;28.10;99.90;;;;;;5115007;28;20501;-70
2022/10/31 12:43:24;;;;;;;23.40;16.57;;;28.20;99.90;;;;;;5114481;28;20437;-69
2022/10/31 12:45:55;;;;;;;26.93;17.43;;;28.20;99.90;;;;;;5116258;28;20434;-69
2022/10/31 12:48:54;;;;;;;28.10;17.53;;;28.30;99.90;;;;;;5114185;28;20890;-69
2022/10/31 12:51:33;;;;;;;21.40;16.27;;;28.30;99.90;;;;;;5112616;28;20474;-69
2022/10/31 12:54:23;;;;;;;22.40;15.30;;;28.10;99.90;;;;;;5115996;28;20453;-68
2022/10/31 12:57:00;;;;;;;28.03;16.80;;;28.20;99.90;;;;;;5115835;28;20434;-68
2022/10/31 12:59:32;;;;;;;20.23;15.97;;;28.10;99.90;;;;;;5116094;28;20457;-70
2022/10/31 13:02:05;;;;;;;21.67;17.17;;;27.90;99.90;;;;;;5116214;28;20530;-69
2022/10/31 13:04:41;;;;;;;19.97;16.07;;;27.90;99.90;;;;;;5114419;28;20442;-69
2022/10/31 13:07:13;;;;;;;21.80;15.90;;;27.70;99.90;;;;;;5109548;28;20437;-69
2022/10/31 13:09:47;;;;;;;23.60;15.97;;;27.60;99.90;;;;;;5114666;28;20453;-69
2022/10/31 13:12:19;;;;;;;22.03;17.10;;;27.70;99.90;;;;;;5117455;28;20472;-69
2022/10/31 13:14:51;;;;;;;19.70;17.37;;;28.00;99.90;;;;;;5119498;28;20449;-69
2022/10/31 13:17:26;;;;;;;31.43;17.17;;;28.00;99.90;;;;;;5119928;28;20476;-69
2022/10/31 13:20:03;;;;;;;22.13;15.10;;;28.10;99.90;;;;;;5120799;28;20421;-69
2022/10/31 13:22:35;;;;;;;26.57;16.67;;;28.10;99.90;;;;;;5119809;28;20491;-67
2022/10/31 13:25:11;;;;;;;23.80;17.03;;;28.20;99.90;;;;;;5120319;28;20497;-69
2022/10/31 13:27:45;;;;;;;25.73;21.20;;;28.20;99.90;;;;;;5120343;28;20441;-68
2022/10/31 13:30:16;;;;;;;22.30;17.73;;;27.90;99.90;;;;;;5119793;28;20446;-67
2022/10/31 13:32:59;;;;;;;21.07;18.07;;;27.70;99.90;;;;;;5120306;28;20422;-69
2022/10/31 13:35:34;;;;;;;22.03;16.23;;;27.50;99.90;;;;;;5118533;28;20453;-69
2022/10/31 13:38:16;;;;;;;22.70;15.93;;;27.20;99.90;;;;;;5120094;28;20479;-68
2022/10/31 13:40:50;;;;;;;23.87;17.63;;;27.10;99.90;;;;;;5119499;28;20429;-69
2022/10/31 13:43:28;;;;;;;24.90;16.87;;;27.10;99.90;;;;;;5118323;28;20448;-69
2022/10/31 13:45:56;;;;;;;25.00;16.67;;;26.90;99.90;;;;;;5119698;28;20438;-68
2022/10/31 13:48:40;;;;;;;22.93;16.90;;;27.00;99.90;;;;;;5118855;28;20453;-69
2022/10/31 13:51:10;;;;;;;22.33;17.20;;;26.60;99.90;;;;;;5117598;28;20499;-69
2022/10/31 13:53:40;;;;;;;27.40;19.50;;;26.30;99.90;;;;;;5119888;28;20456;-71
2022/10/31 13:56:17;;;;;;;25.00;18.03;;;26.10;99.90;;;;;;5119670;28;20463;-67
2022/10/31 13:59:00;;;;;;;21.93;17.70;;;25.70;99.90;;;;;;5119140;28;20502;-69
2022/10/31 14:01:29;;;;;;;22.10;17.60;;;25.40;99.90;;;;;;5119106;28;20444;-68
2022/10/31 14:04:04;;;;;;;29.37;18.17;;;25.10;99.90;;;;;;5119253;28;20509;-68
2022/10/31 14:06:41;;;;;;;23.53;16.73;;;25.00;99.90;;;;;;5118275;28;20433;-69
2022/10/31 14:09:20;;;;;;;22.00;17.87;;;24.70;99.90;;;;;;5118149;28;20538;-68
2022/10/31 14:11:48;;;;;;;27.83;19.80;;;24.50;99.90;;;;;;5116013;28;20488;-69
2022/10/31 14:14:18;;;;;;;29.10;19.07;;;24.20;99.90;;;;;;5117930;28;20437;-70
2022/10/31 14:16:46;;;;;;;25.50;22.03;;;24.00;99.90;;;;;;5117251;28;20555;-69
2022/10/31 14:19:19;;;;;;;28.10;21.73;;;23.80;99.90;;;;;;5109734;28;20477;-69
2022/10/31 14:21:47;;;;;;;34.33;22.83;;;23.30;99.90;;;;;;5105870;28;20440;-69
2022/10/31 14:24:16;;;;;;;32.07;23.43;;;22.80;99.90;;;;;;5105629;28;20513;-67
2022/10/31 14:26:54;;;;;;;26.23;22.07;;;22.20;99.90;;;;;;5107588;28;20457;-69
2022/10/31 14:29:26;;;;;;;29.13;22.47;;;21.50;99.90;;;;;;5106248;28;20461;-69
2022/10/31 14:31:56;;;;;;;32.73;23.07;;;21.20;99.90;;;;;;5106518;28;20465;-70
2022/10/31 14:34:26;;;;;;;32.97;25.10;;;20.90;99.90;;;;;;5105203;28;20476;-70
2022/10/31 14:37:09;;;;;;;34.13;24.73;;;20.60;99.90;;;;;;5104639;28;20461;-68
2022/10/31 14:39:46;;;;;;;30.03;24.40;;;20.30;99.90;;;;;;5105341;28;20468;-69
2022/10/31 14:42:43;;;;;;;39.47;30.47;;;19.90;99.90;;;;;;5106589;28;20434;-68
2022/10/31 14:45:22;;;;;;;41.10;30.20;;;19.70;99.90;;;;;;5105398;28;20449;-68
2022/10/31 14:48:01;;;;;;;33.33;26.63;;;19.50;99.90;;;;;;5105265;28;20446;-70
2022/10/31 14:50:38;;;;;;;33.40;25.43;;;19.30;99.90;;;;;;5106156;28;20440;-67
2022/10/31 14:53:08;;;;;;;35.97;27.40;;;19.10;99.90;;;;;;5106479;28;20483;-69
2022/10/31 14:55:36;;;;;;;39.03;27.53;;;18.90;99.90;;;;;;5107601;28;20454;-69
2022/10/31 14:58:08;;;;;;;39.13;26.87;;;18.70;99.90;;;;;;5107711;28;20901;-68
2022/10/31 15:00:37;;;;;;;36.37;27.13;;;18.60;99.90;;;;;;5106508;28;20469;-69
2022/10/31 15:03:13;;;;;;;39.70;28.37;;;18.50;99.90;;;;;;5108062;28;20464;-69
2022/10/31 15:05:43;;;;;;;35.90;27.13;;;18.30;99.90;;;;;;5107554;28;20429;-68
2022/10/31 15:08:32;;;;;;;44.20;26.37;;;18.20;99.90;;;;;;5106648;28;20505;-70
2022/10/31 15:10:59;;;;;;;40.70;30.80;;;18.00;99.90;;;;;;5107550;28;20493;-69
2022/10/31 15:13:26;;;;;;;41.57;29.37;;;17.90;99.90;;;;;;5106954;28;20453;-68
2022/10/31 15:15:56;;;;;;;55.40;36.47;;;17.90;99.90;;;;;;5105778;28;20490;-70
2022/10/31 15:18:26;;;;;;;47.27;33.50;;;17.80;99.90;;;;;;5107377;28;20481;-69
2022/10/31 15:20:55;;;;;;;38.47;29.30;;;17.70;99.90;;;;;;5108788;28;20467;-70
2022/10/31 15:23:24;;;;;;;42.70;30.20;;;17.60;99.90;;;;;;5108527;28;20461;-69
2022/10/31 15:25:52;;;;;;;44.43;32.80;;;17.50;99.90;;;;;;5106018;28;20838;-70
2022/10/31 15:28:24;;;;;;;47.30;33.33;;;17.40;99.90;;;;;;5104207;28;20530;-69
2022/10/31 15:30:54;;;;;;;46.47;32.20;;;17.30;99.90;;;;;;5104647;28;20476;-69
2022/10/31 15:33:24;;;;;;;43.60;32.30;;;17.20;99.90;;;;;;5105455;28;20450;-70
2022/10/31 15:35:58;;;;;;;46.90;32.90;;;17.10;99.90;;;;;;5105347;28;20484;-69
2022/10/31 15:38:26;;;;;;;48.53;32.93;;;17.00;99.90;;;;;;5106386;28;20488;-69
2022/10/31 15:40:56;;;;;;;55.70;35.70;;;16.80;99.90;;;;;;5105365;28;20475;-69
2022/10/31 15:43:23;;;;;;;52.83;32.80;;;16.80;99.90;;;;;;5105530;28;20434;-69
2022/10/31 15:45:50;;;;;;;50.23;35.03;;;16.70;99.90;;;;;;5106280;28;20445;-69
2022/10/31 15:48:22;;;;;;;47.37;33.97;;;16.50;99.90;;;;;;5104369;28;20553;-69
2022/10/31 15:50:52;;;;;;;55.00;33.03;;;16.50;99.90;;;;;;5104879;28;20441;-68
2022/10/31 15:53:24;;;;;;;51.70;34.73;;;16.40;99.90;;;;;;5105125;28;20458;-70
2022/10/31 15:55:54;;;;;;;48.53;34.53;;;16.40;99.90;;;;;;5104052;28;20446;-70
2022/10/31 15:58:21;;;;;;;49.93;34.17;;;16.30;99.90;;;;;;5103528;28;20860;-70
2022/10/31 16:00:59;;;;;;;49.07;32.50;;;16.30;99.90;;;;;;5105575;28;20514;-70
2022/10/31 16:03:29;;;;;;;45.67;32.73;;;16.20;99.90;;;;;;5105290;28;20473;-69
2022/10/31 16:05:58;;;;;;;57.70;35.50;;;16.20;99.90;;;;;;5104334;28;20480;-70
2022/10/31 16:08:32;;;;;;;52.80;35.30;;;16.10;99.90;;;;;;5105157;28;20457;-69
2022/10/31 16:11:00;;;;;;;51.30;35.30;;;16.10;99.90;;;;;;5103545;28;20494;-68
2022/10/31 16:13:30;;;;;;;55.47;36.90;;;16.10;99.90;;;;;;5103479;28;20473;-70
2022/10/31 16:16:00;;;;;;;53.13;34.47;;;16.10;99.90;;;;;;5105129;28;20457;-70
2022/10/31 16:18:36;;;;;;;51.93;33.97;;;16.10;99.90;;;;;;5109714;28;20497;-69
2022/10/31 16:21:04;;;;;;;53.23;34.07;;;16.10;99.90;;;;;;5105602;28;20441;-69
2022/10/31 16:23:31;;;;;;;47.43;33.23;;;16.10;99.90;;;;;;5104961;28;20488;-70
2022/10/31 16:25:58;;;;;;;49.63;34.50;;;16.10;99.90;;;;;;5103719;28;20475;-70
2022/10/31 16:28:28;;;;;;;50.73;33.40;;;16.10;99.90;;;;;;5103209;28;20938;-70
2022/10/31 16:30:56;;;;;;;51.07;34.77;;;16.10;99.90;;;;;;5102885;28;20479;-69
2022/10/31 16:33:28;;;;;;;55.20;36.27;;;16.10;99.90;;;;;;5103522;28;20453;-69
2022/10/31 16:35:57;;;;;;;55.93;34.07;;;16.00;99.90;;;;;;5103133;28;20461;-70
2022/10/31 16:38:24;;;;;;;49.00;34.90;;;16.00;99.90;;;;;;5104270;28;20446;-70
2022/10/31 16:40:52;;;;;;;51.53;36.27;;;16.00;99.90;;;;;;5103678;28;20457;-70
2022/10/31 16:43:21;;;;;;;52.90;34.77;;;16.00;99.90;;;;;;5102644;28;20745;-70
2022/10/31 16:45:51;;;;;;;58.53;36.60;;;16.00;99.90;;;;;;5102881;28;20449;-69
2022/10/31 16:48:21;;;;;;;53.83;36.93;;;16.00;99.90;;;;;;5107016;28;20449;-70
2022/10/31 16:50:53;;;;;;;56.20;35.33;;;16.00;99.90;;;;;;5108253;28;20521;-72
2022/10/31 16:53:20;;;;;;;55.50;35.80;;;16.00;99.90;;;;;;5108314;28;20504;-69
2022/10/31 16:55:52;;;;;;;71.10;41.90;;;16.00;99.90;;;;;;5107632;28;20449;-70
2022/10/31 16:58:29;;;;;;;63.30;42.20;;;16.00;99.90;;;;;;5107624;28;20464;-71
2022/10/31 17:00:57;;;;;;;61.23;38.80;;;16.00;99.90;;;;;;5107901;28;20461;-70
2022/10/31 17:03:24;;;;;;;67.57;40.97;;;16.00;99.90;;;;;;5108147;28;20445;-70
2022/10/31 17:05:54;;;;;;;67.70;40.67;;;16.00;99.90;;;;;;5108714;28;20453;-70
2022/10/31 17:08:22;;;;;;;73.67;40.90;;;16.00;99.90;;;;;;5107198;28;20456;-70
2022/10/31 17:10:52;;;;;;;64.20;42.10;;;16.00;99.90;;;;;;5107503;28;20457;-70
2022/10/31 17:13:22;;;;;;;69.27;40.77;;;16.00;99.90;;;;;;5107242;28;20495;-70
2022/10/31 17:15:51;;;;;;;69.67;40.83;;;16.00;99.90;;;;;;5107349;28;20461;-69
2022/10/31 17:18:19;;;;;;;54.47;37.23;;;16.00;99.90;;;;;;5109306;28;20481;-69
2022/10/31 17:20:47;;;;;;;52.23;34.53;;;16.00;99.90;;;;;;5107934;28;20485;-70
2022/10/31 17:23:17;;;;;;;53.57;34.53;;;15.90;99.90;;;;;;5109491;28;20525;-70
2022/10/31 17:25:44;;;;;;;56.90;35.73;;;15.90;99.90;;;;;;5108635;28;20449;-69
2022/10/31 17:28:12;;;;;;;59.33;37.40;;;15.90;99.90;;;;;;5109215;28;20461;-69
2022/10/31 17:30:40;;;;;;;60.37;38.77;;;15.80;99.90;;;;;;5109542;28;20453;-69
2022/10/31 17:33:09;;;;;;;62.33;40.30;;;15.80;99.90;;;;;;5109463;28;20506;-69
2022/10/31 17:35:36;;;;;;;61.10;39.90;;;15.80;99.90;;;;;;5109636;28;20449;-69
2022/10/31 17:38:03;;;;;;;61.10;37.10;;;15.80;99.90;;;;;;5110171;28;20487;-69
2022/10/31 17:40:32;;;;;;;61.43;38.63;;;15.80;99.90;;;;;;5109766;28;20454;-69
2022/10/31 17:42:59;;;;;;;56.57;38.80;;;15.80;99.90;;;;;;5111090;28;20478;-69
2022/10/31 17:45:27;;;;;;;53.03;35.50;;;15.80;99.90;;;;;;5110332;28;20843;-69
2022/10/31 17:47:54;;;;;;;58.30;36.17;;;15.70;99.90;;;;;;5108468;28;20453;-69
2022/10/31 17:50:23;;;;;;;49.43;34.97;;;15.70;99.90;;;;;;5106431;28;20491;-69
2022/10/31 17:52:50;;;;;;;49.70;35.60;;;15.60;99.90;;;;;;5106953;28;20516;-69
2022/10/31 17:55:18;;;;;;;49.53;34.10;;;15.60;99.90;;;;;;5108552;28;20453;-69
2022/10/31 17:57:46;;;;;;;46.37;32.60;;;15.50;99.90;;;;;;5107523;28;20462;-69
2022/10/31 18:00:16;;;;;;;45.90;32.57;;;15.50;99.90;;;;;;5107205;28;20453;-69
2022/10/31 18:02:42;;;;;;;47.83;33.40;;;15.40;99.90;;;;;;5107491;28;20538;-69
2022/10/31 18:05:10;;;;;;;55.17;35.80;;;15.40;99.90;;;;;;5106546;28;20453;-69
2022/10/31 18:07:37;;;;;;;43.73;32.20;;;15.30;99.90;;;;;;5106773;28;20453;-70
2022/10/31 18:10:05;;;;;;;43.10;31.83;;;15.30;99.90;;;;;;5107419;28;20481;-69
2022/10/31 18:12:32;;;;;;;43.73;32.50;;;15.30;99.90;;;;;;5106378;28;20479;-69
2022/10/31 18:15:00;;;;;;;43.60;30.70;;;15.30;99.90;;;;;;5106237;28;20453;-69
2022/10/31 18:17:27;;;;;;;36.90;28.50;;;15.30;99.90;;;;;;5107643;28;20477;-69
2022/10/31 18:19:54;;;;;;;39.50;30.80;;;15.20;99.90;;;;;;5107225;28;20453;-70
2022/10/31 18:22:21;;;;;;;50.10;32.57;;;15.20;99.90;;;;;;5107234;28;20507;-69
2022/10/31 18:24:48;;;;;;;42.87;31.67;;;15.10;99.90;;;;;;5106099;28;20449;-68
2022/10/31 18:27:15;;;;;;;42.07;30.63;;;15.20;99.90;;;;;;5105108;28;20538;-69
2022/10/31 18:29:42;;;;;;;39.27;30.70;;;15.20;99.90;;;;;;5105820;28;20457;-69
2022/10/31 18:32:10;;;;;;;47.40;33.00;;;15.20;99.90;;;;;;5106317;28;20484;-69
2022/10/31 18:34:37;;;;;;;45.07;32.50;;;15.10;99.90;;;;;;5105323;28;20791;-68
2022/10/31 18:37:04;;;;;;;41.40;30.50;;;15.10;99.90;;;;;;5105342;28;20481;-69
2022/10/31 18:39:31;;;;;;;50.10;33.20;;;15.10;99.90;;;;;;5105591;28;20481;-69
2022/10/31 18:41:58;;;;;;;48.10;34.43;;;15.10;99.90;;;;;;5105816;28;20473;-69
2022/10/31 18:44:26;;;;;;;69.80;46.90;;;15.10;99.90;;;;;;5105872;28;20518;-69
2022/10/31 18:46:53;;;;;;;58.80;35.20;;;15.10;99.90;;;;;;5105178;28;20463;-71
2022/10/31 18:49:22;;;;;;;54.80;37.87;;;15.20;99.90;;;;;;5105972;28;20902;-70
2022/10/31 18:51:49;;;;;;;51.97;38.17;;;15.20;99.90;;;;;;5105076;28;20453;-69
2022/10/31 18:54:17;;;;;;;50.37;36.23;;;15.30;99.90;;;;;;5106585;28;20857;-70
2022/10/31 18:56:44;;;;;;;50.57;35.83;;;15.30;99.90;;;;;;5107493;28;20479;-69
2022/10/31 18:59:11;;;;;;;48.10;34.43;;;15.20;99.90;;;;;;5106185;28;20572;-69
2022/10/31 19:01:38;;;;;;;50.67;36.53;;;15.20;99.90;;;;;;5106495;28;20457;-69
2022/10/31 19:04:06;;;;;;;48.90;35.90;;;15.20;99.90;;;;;;5107034;28;20460;-69
2022/10/31 19:06:34;;;;;;;54.90;37.37;;;15.20;99.90;;;;;;5107014;28;20453;-69
2022/10/31 19:09:04;;;;;;;54.60;36.03;;;15.20;99.90;;;;;;5107961;28;20470;-69
2022/10/31 19:11:33;;;;;;;54.03;35.80;;;15.20;99.90;;;;;;5107467;28;20500;-68